sensor_id;sensor_type;location;lat;lon;timestamp;temperature;humidity
73277;DHT22;61501;43.316;5.372;2024-02-23T00:00:49;12.20;99.90
73277;DHT22;61501;43.316;5.372;2024-02-23T00:03:15;12.20;99.90
73277;DHT22;61501;43.316;5.372;2024-02-23T00:05:41;12.20;99.90
73277;DHT22;61501;43.316;5.372;2024-02-23T00:08:07;12.20;99.90
73277;DHT22;61501;43.316;5.372;2024-02-23T00:10:34;12.10;99.90
73277;DHT22;61501;43.316;5.372;2024-02-23T00:13:00;12.10;99.90
73277;DHT22;61501;43.316;5.372;2024-02-23T00:15:26;12.10;99.90
73277;DHT22;61501;43.316;5.372;2024-02-23T00:17:52;12.10;99.90
73277;DHT22;61501;43.316;5.372;2024-02-23T00:20:17;12.10;99.90
73277;DHT22;61501;43.316;5.372;2024-02-23T00:22:43;12.10;99.90
73277;DHT22;61501;43.316;5.372;2024-02-23T00:25:08;12.10;99.90
73277;DHT22;61501;43.316;5.372;2024-02-23T00:27:34;12.10;99.90
73277;DHT22;61501;43.316;5.372;2024-02-23T00:30:00;12.10;99.90
73277;DHT22;61501;43.316;5.372;2024-02-23T00:32:25;12.10;99.90
73277;DHT22;61501;43.316;5.372;2024-02-23T00:34:51;12.10;99.90
73277;DHT22;61501;43.316;5.372;2024-02-23T00:37:17;12.10;99.90
73277;DHT22;61501;43.316;5.372;2024-02-23T00:39:42;12.10;99.90
73277;DHT22;61501;43.316;5.372;2024-02-23T00:42:08;12.10;99.90
73277;DHT22;61501;43.316;5.372;2024-02-23T00:44:34;12.10;99.90
73277;DHT22;61501;43.316;5.372;2024-02-23T00:46:59;11.90;99.90
73277;DHT22;61501;43.316;5.372;2024-02-23T00:49:27;11.90;99.90
73277;DHT22;61501;43.316;5.372;2024-02-23T00:51:54;11.90;99.90
73277;DHT22;61501;43.316;5.372;2024-02-23T00:54:19;11.90;99.90
73277;DHT22;61501;43.316;5.372;2024-02-23T00:56:46;11.90;99.90
73277;DHT22;61501;43.316;5.372;2024-02-23T00:59:12;11.80;99.90
73277;DHT22;61501;43.316;5.372;2024-02-23T01:01:38;11.70;99.90
73277;DHT22;61501;43.316;5.372;2024-02-23T01:04:04;11.80;99.90
73277;DHT22;61501;43.316;5.372;2024-02-23T01:06:30;11.80;99.90
73277;DHT22;61501;43.316;5.372;2024-02-23T01:08:55;11.70;99.90
73277;DHT22;61501;43.316;5.372;2024-02-23T01:11:21;11.70;99.90
73277;DHT22;61501;43.316;5.372;2024-02-23T01:13:47;11.70;99.90
73277;DHT22;61501;43.316;5.372;2024-02-23T01:16:12;11.70;99.90
73277;DHT22;61501;43.316;5.372;2024-02-23T01:18:38;11.70;99.90
73277;DHT22;61501;43.316;5.372;2024-02-23T01:21:03;11.70;99.90
73277;DHT22;61501;43.316;5.372;2024-02-23T01:23:29;11.60;99.90
73277;DHT22;61501;43.316;5.372;2024-02-23T01:25:55;11.50;99.90
73277;DHT22;61501;43.316;5.372;2024-02-23T01:28:20;11.50;99.90
73277;DHT22;61501;43.316;5.372;2024-02-23T01:30:46;11.60;99.90
73277;DHT22;61501;43.316;5.372;2024-02-23T01:33:11;11.60;99.90
73277;DHT22;61501;43.316;5.372;2024-02-23T01:35:37;11.60;99.90
73277;DHT22;61501;43.316;5.372;2024-02-23T01:38:03;11.60;99.90
73277;DHT22;61501;43.316;5.372;2024-02-23T01:40:28;11.60;99.90
73277;DHT22;61501;43.316;5.372;2024-02-23T01:43:04;11.60;99.90
73277;DHT22;61501;43.316;5.372;2024-02-23T01:45:30;11.60;99.90
73277;DHT22;61501;43.316;5.372;2024-02-23T01:47:57;11.60;99.90
73277;DHT22;61501;43.316;5.372;2024-02-23T01:50:23;11.60;99.90
73277;DHT22;61501;43.316;5.372;2024-02-23T01:52:49;11.60;99.90
73277;DHT22;61501;43.316;5.372;2024-02-23T01:55:19;11.50;99.90
73277;DHT22;61501;43.316;5.372;2024-02-23T01:57:45;11.50;99.90
73277;DHT22;61501;43.316;5.372;2024-02-23T02:00:16;11.50;99.90
73277;DHT22;61501;43.316;5.372;2024-02-23T02:02:43;11.50;99.90
73277;DHT22;61501;43.316;5.372;2024-02-23T02:05:08;11.50;99.90
73277;DHT22;61501;43.316;5.372;2024-02-23T02:07:34;11.50;99.90
73277;DHT22;61501;43.316;5.372;2024-02-23T02:10:00;11.40;99.90
73277;DHT22;61501;43.316;5.372;2024-02-23T02:12:29;11.50;99.90
73277;DHT22;61501;43.316;5.372;2024-02-23T02:14:54;11.40;99.90
73277;DHT22;61501;43.316;5.372;2024-02-23T02:17:21;11.50;99.90
73277;DHT22;61501;43.316;5.372;2024-02-23T02:19:50;11.50;99.90
73277;DHT22;61501;43.316;5.372;2024-02-23T02:22:16;11.40;99.90
73277;DHT22;61501;43.316;5.372;2024-02-23T02:24:42;11.40;99.90
73277;DHT22;61501;43.316;5.372;2024-02-23T02:27:09;11.40;99.90
73277;DHT22;61501;43.316;5.372;2024-02-23T02:29:38;11.40;99.90
73277;DHT22;61501;43.316;5.372;2024-02-23T02:32:04;11.40;99.90
73277;DHT22;61501;43.316;5.372;2024-02-23T02:34:30;11.30;99.90
73277;DHT22;61501;43.316;5.372;2024-02-23T02:36:56;11.40;99.90
73277;DHT22;61501;43.316;5.372;2024-02-23T02:39:21;11.30;99.90
73277;DHT22;61501;43.316;5.372;2024-02-23T02:41:50;11.30;99.90
73277;DHT22;61501;43.316;5.372;2024-02-23T02:44:16;11.30;99.90
73277;DHT22;61501;43.316;5.372;2024-02-23T02:46:42;11.30;99.90
73277;DHT22;61501;43.316;5.372;2024-02-23T02:49:07;11.30;99.90
73277;DHT22;61501;43.316;5.372;2024-02-23T02:51:33;11.30;99.90
73277;DHT22;61501;43.316;5.372;2024-02-23T02:54:02;11.30;99.90
73277;DHT22;61501;43.316;5.372;2024-02-23T02:56:28;11.20;99.90
73277;DHT22;61501;43.316;5.372;2024-02-23T02:58:53;11.20;99.90
73277;DHT22;61501;43.316;5.372;2024-02-23T03:01:19;11.20;99.90
73277;DHT22;61501;43.316;5.372;2024-02-23T03:03:44;11.10;99.90
73277;DHT22;61501;43.316;5.372;2024-02-23T03:06:10;11.00;99.90
73277;DHT22;61501;43.316;5.372;2024-02-23T03:08:36;11.10;99.90
73277;DHT22;61501;43.316;5.372;2024-02-23T03:11:01;11.10;99.90
73277;DHT22;61501;43.316;5.372;2024-02-23T03:13:27;11.00;99.90
73277;DHT22;61501;43.316;5.372;2024-02-23T03:15:53;11.00;99.90
73277;DHT22;61501;43.316;5.372;2024-02-23T03:18:19;11.00;99.90
73277;DHT22;61501;43.316;5.372;2024-02-23T03:20:44;11.00;99.90
73277;DHT22;61501;43.316;5.372;2024-02-23T03:23:10;11.00;99.90
73277;DHT22;61501;43.316;5.372;2024-02-23T03:25:36;11.00;99.90
73277;DHT22;61501;43.316;5.372;2024-02-23T03:28:02;11.00;99.90
73277;DHT22;61501;43.316;5.372;2024-02-23T03:30:27;11.00;99.90
73277;DHT22;61501;43.316;5.372;2024-02-23T03:32:53;11.00;99.90
73277;DHT22;61501;43.316;5.372;2024-02-23T03:35:19;11.00;99.90
73277;DHT22;61501;43.316;5.372;2024-02-23T03:37:44;11.00;99.90
73277;DHT22;61501;43.316;5.372;2024-02-23T03:40:10;10.90;99.90
73277;DHT22;61501;43.316;5.372;2024-02-23T03:42:36;10.90;99.90
73277;DHT22;61501;43.316;5.372;2024-02-23T03:45:02;10.90;99.90
73277;DHT22;61501;43.316;5.372;2024-02-23T03:47:28;10.90;99.90
73277;DHT22;61501;43.316;5.372;2024-02-23T03:49:54;10.90;99.90
73277;DHT22;61501;43.316;5.372;2024-02-23T03:52:19;10.90;99.90
73277;DHT22;61501;43.316;5.372;2024-02-23T03:54:45;10.90;99.90
73277;DHT22;61501;43.316;5.372;2024-02-23T03:57:11;10.80;99.90
73277;DHT22;61501;43.316;5.372;2024-02-23T03:59:36;10.90;99.90
73277;DHT22;61501;43.316;5.372;2024-02-23T04:02:03;10.80;99.90
73277;DHT22;61501;43.316;5.372;2024-02-23T04:04:29;10.80;99.90
73277;DHT22;61501;43.316;5.372;2024-02-23T04:06:54;10.80;99.90
73277;DHT22;61501;43.316;5.372;2024-02-23T04:09:20;10.80;99.90
73277;DHT22;61501;43.316;5.372;2024-02-23T04:11:47;10.90;99.90
73277;DHT22;61501;43.316;5.372;2024-02-23T04:14:13;10.90;99.90
73277;DHT22;61501;43.316;5.372;2024-02-23T04:16:39;10.90;99.90
73277;DHT22;61501;43.316;5.372;2024-02-23T04:19:05;10.80;99.90
73277;DHT22;61501;43.316;5.372;2024-02-23T04:21:30;10.80;99.90
73277;DHT22;61501;43.316;5.372;2024-02-23T04:23:56;10.70;99.90
73277;DHT22;61501;43.316;5.372;2024-02-23T04:26:22;10.70;99.90
73277;DHT22;61501;43.316;5.372;2024-02-23T04:28:48;10.70;99.90
73277;DHT22;61501;43.316;5.372;2024-02-23T04:31:13;10.70;99.90
73277;DHT22;61501;43.316;5.372;2024-02-23T04:33:39;10.70;99.90
73277;DHT22;61501;43.316;5.372;2024-02-23T04:36:07;10.70;99.90
73277;DHT22;61501;43.316;5.372;2024-02-23T04:38:33;10.70;99.90
73277;DHT22;61501;43.316;5.372;2024-02-23T04:41:03;10.70;99.90
73277;DHT22;61501;43.316;5.372;2024-02-23T04:43:32;10.70;99.90
73277;DHT22;61501;43.316;5.372;2024-02-23T04:45:58;10.60;99.90
73277;DHT22;61501;43.316;5.372;2024-02-23T04:48:24;10.70;99.90
73277;DHT22;61501;43.316;5.372;2024-02-23T04:50:50;10.60;99.90
73277;DHT22;61501;43.316;5.372;2024-02-23T04:53:15;10.60;99.90
73277;DHT22;61501;43.316;5.372;2024-02-23T04:55:41;10.60;99.90
73277;DHT22;61501;43.316;5.372;2024-02-23T04:58:07;10.60;99.90
73277;DHT22;61501;43.316;5.372;2024-02-23T05:00:32;10.50;99.90
73277;DHT22;61501;43.316;5.372;2024-02-23T05:02:59;10.50;99.90
73277;DHT22;61501;43.316;5.372;2024-02-23T05:05:25;10.50;99.90
73277;DHT22;61501;43.316;5.372;2024-02-23T05:07:51;10.40;99.90
73277;DHT22;61501;43.316;5.372;2024-02-23T05:10:16;10.50;99.90
73277;DHT22;61501;43.316;5.372;2024-02-23T05:12:42;10.40;99.90
73277;DHT22;61501;43.316;5.372;2024-02-23T05:15:08;10.40;99.90
73277;DHT22;61501;43.316;5.372;2024-02-23T05:17:35;10.40;99.90
73277;DHT22;61501;43.316;5.372;2024-02-23T05:20:01;10.30;99.90
73277;DHT22;61501;43.316;5.372;2024-02-23T05:22:32;10.30;99.90
73277;DHT22;61501;43.316;5.372;2024-02-23T05:24:57;10.30;99.90
73277;DHT22;61501;43.316;5.372;2024-02-23T05:27:23;10.30;99.90
73277;DHT22;61501;43.316;5.372;2024-02-23T05:29:48;10.30;99.90
73277;DHT22;61501;43.316;5.372;2024-02-23T05:32:14;10.20;99.90
73277;DHT22;61501;43.316;5.372;2024-02-23T05:34:41;10.20;99.90
73277;DHT22;61501;43.316;5.372;2024-02-23T05:37:07;10.20;99.90
73277;DHT22;61501;43.316;5.372;2024-02-23T05:39:36;10.10;99.90
73277;DHT22;61501;43.316;5.372;2024-02-23T05:42:03;10.10;99.90
73277;DHT22;61501;43.316;5.372;2024-02-23T05:44:29;10.10;99.90
73277;DHT22;61501;43.316;5.372;2024-02-23T05:46:55;10.10;99.90
73277;DHT22;61501;43.316;5.372;2024-02-23T05:49:20;10.10;99.90
73277;DHT22;61501;43.316;5.372;2024-02-23T05:51:46;10.10;99.90
73277;DHT22;61501;43.316;5.372;2024-02-23T05:54:11;10.10;99.90
73277;DHT22;61501;43.316;5.372;2024-02-23T05:56:37;10.10;99.90
73277;DHT22;61501;43.316;5.372;2024-02-23T05:59:03;10.00;99.90
73277;DHT22;61501;43.316;5.372;2024-02-23T06:01:28;10.00;99.90
73277;DHT22;61501;43.316;5.372;2024-02-23T06:03:54;10.00;99.90
73277;DHT22;61501;43.316;5.372;2024-02-23T06:06:20;10.10;99.90
73277;DHT22;61501;43.316;5.372;2024-02-23T06:08:46;10.10;99.90
73277;DHT22;61501;43.316;5.372;2024-02-23T06:11:12;10.00;99.90
73277;DHT22;61501;43.316;5.372;2024-02-23T06:13:37;10.00;99.90
73277;DHT22;61501;43.316;5.372;2024-02-23T06:16:04;10.00;99.90
73277;DHT22;61501;43.316;5.372;2024-02-23T06:18:30;10.00;99.90
73277;DHT22;61501;43.316;5.372;2024-02-23T06:20:56;10.00;99.90
73277;DHT22;61501;43.316;5.372;2024-02-23T06:23:21;9.90;99.90
73277;DHT22;61501;43.316;5.372;2024-02-23T06:25:47;9.90;99.90
73277;DHT22;61501;43.316;5.372;2024-02-23T06:28:13;10.00;99.90
73277;DHT22;61501;43.316;5.372;2024-02-23T06:30:39;10.00;99.90
73277;DHT22;61501;43.316;5.372;2024-02-23T06:33:08;10.00;99.90
73277;DHT22;61501;43.316;5.372;2024-02-23T06:35:33;10.00;99.90
73277;DHT22;61501;43.316;5.372;2024-02-23T06:37:59;10.00;99.90
73277;DHT22;61501;43.316;5.372;2024-02-23T06:40:25;9.90;99.90
73277;DHT22;61501;43.316;5.372;2024-02-23T06:42:50;10.00;99.90
73277;DHT22;61501;43.316;5.372;2024-02-23T06:45:16;9.90;99.90
73277;DHT22;61501;43.316;5.372;2024-02-23T06:47:44;9.80;99.90
73277;DHT22;61501;43.316;5.372;2024-02-23T06:50:10;9.80;99.90
73277;DHT22;61501;43.316;5.372;2024-02-23T06:52:36;9.80;99.90
73277;DHT22;61501;43.316;5.372;2024-02-23T06:55:03;9.80;99.90
73277;DHT22;61501;43.316;5.372;2024-02-23T06:57:28;9.80;99.90
73277;DHT22;61501;43.316;5.372;2024-02-23T06:59:56;9.80;99.90
73277;DHT22;61501;43.316;5.372;2024-02-23T07:02:21;9.80;99.90
73277;DHT22;61501;43.316;5.372;2024-02-23T07:04:47;9.90;99.90
73277;DHT22;61501;43.316;5.372;2024-02-23T07:07:13;9.80;99.90
73277;DHT22;61501;43.316;5.372;2024-02-23T07:09:38;9.80;99.90
73277;DHT22;61501;43.316;5.372;2024-02-23T07:12:04;9.90;99.90
73277;DHT22;61501;43.316;5.372;2024-02-23T07:14:30;9.80;99.90
73277;DHT22;61501;43.316;5.372;2024-02-23T07:16:56;9.80;99.90
73277;DHT22;61501;43.316;5.372;2024-02-23T07:19:21;9.80;99.90
73277;DHT22;61501;43.316;5.372;2024-02-23T07:21:48;9.70;99.90
73277;DHT22;61501;43.316;5.372;2024-02-23T07:24:14;9.70;99.90
73277;DHT22;61501;43.316;5.372;2024-02-23T07:26:39;9.70;99.90
73277;DHT22;61501;43.316;5.372;2024-02-23T07:29:06;9.70;99.90
73277;DHT22;61501;43.316;5.372;2024-02-23T07:31:32;9.60;99.90
73277;DHT22;61501;43.316;5.372;2024-02-23T07:33:57;9.60;99.90
73277;DHT22;61501;43.316;5.372;2024-02-23T07:36:23;9.70;99.90
73277;DHT22;61501;43.316;5.372;2024-02-23T07:38:49;9.60;99.90
73277;DHT22;61501;43.316;5.372;2024-02-23T07:41:15;9.60;99.90
73277;DHT22;61501;43.316;5.372;2024-02-23T07:43:40;9.50;99.90
73277;DHT22;61501;43.316;5.372;2024-02-23T07:46:06;9.50;99.90
73277;DHT22;61501;43.316;5.372;2024-02-23T07:48:35;9.50;99.90
73277;DHT22;61501;43.316;5.372;2024-02-23T07:51:01;9.50;99.90
73277;DHT22;61501;43.316;5.372;2024-02-23T07:53:27;9.50;99.90
73277;DHT22;61501;43.316;5.372;2024-02-23T07:55:53;9.40;99.90
73277;DHT22;61501;43.316;5.372;2024-02-23T07:58:19;9.40;99.90
73277;DHT22;61501;43.316;5.372;2024-02-23T08:00:44;9.50;99.90
73277;DHT22;61501;43.316;5.372;2024-02-23T08:03:10;9.50;99.90
73277;DHT22;61501;43.316;5.372;2024-02-23T08:05:36;9.60;99.90
73277;DHT22;61501;43.316;5.372;2024-02-23T08:08:02;9.50;99.90
73277;DHT22;61501;43.316;5.372;2024-02-23T08:10:28;9.60;99.90
73277;DHT22;61501;43.316;5.372;2024-02-23T08:12:53;9.60;99.90
73277;DHT22;61501;43.316;5.372;2024-02-23T08:15:19;9.60;99.90
73277;DHT22;61501;43.316;5.372;2024-02-23T08:17:45;9.60;99.90
73277;DHT22;61501;43.316;5.372;2024-02-23T08:20:10;9.60;99.90
73277;DHT22;61501;43.316;5.372;2024-02-23T08:22:36;9.60;99.90
73277;DHT22;61501;43.316;5.372;2024-02-23T08:25:02;9.70;99.90
73277;DHT22;61501;43.316;5.372;2024-02-23T08:27:27;9.70;99.90
73277;DHT22;61501;43.316;5.372;2024-02-23T08:29:53;9.80;99.90
73277;DHT22;61501;43.316;5.372;2024-02-23T08:32:19;9.80;99.90
73277;DHT22;61501;43.316;5.372;2024-02-23T08:34:45;9.80;99.90
73277;DHT22;61501;43.316;5.372;2024-02-23T08:37:12;9.90;99.90
73277;DHT22;61501;43.316;5.372;2024-02-23T08:39:38;9.80;99.90
73277;DHT22;61501;43.316;5.372;2024-02-23T08:42:03;9.80;99.90
73277;DHT22;61501;43.316;5.372;2024-02-23T08:44:29;9.90;99.90
73277;DHT22;61501;43.316;5.372;2024-02-23T08:46:55;9.80;99.90
73277;DHT22;61501;43.316;5.372;2024-02-23T08:49:20;9.90;99.90
73277;DHT22;61501;43.316;5.372;2024-02-23T08:51:46;10.00;99.90
73277;DHT22;61501;43.316;5.372;2024-02-23T08:54:12;9.90;99.90
73277;DHT22;61501;43.316;5.372;2024-02-23T08:56:38;10.00;99.90
73277;DHT22;61501;43.316;5.372;2024-02-23T08:59:08;10.10;99.90
73277;DHT22;61501;43.316;5.372;2024-02-23T09:01:37;10.10;99.90
73277;DHT22;61501;43.316;5.372;2024-02-23T09:04:03;10.10;99.90
73277;DHT22;61501;43.316;5.372;2024-02-23T09:06:28;10.20;99.90
73277;DHT22;61501;43.316;5.372;2024-02-23T09:08:54;10.10;99.90
73277;DHT22;61501;43.316;5.372;2024-02-23T09:11:19;10.10;99.90
73277;DHT22;61501;43.316;5.372;2024-02-23T09:13:45;10.10;99.90
73277;DHT22;61501;43.316;5.372;2024-02-23T09:16:11;10.10;99.90
73277;DHT22;61501;43.316;5.372;2024-02-23T09:18:36;10.20;99.90
73277;DHT22;61501;43.316;5.372;2024-02-23T09:21:02;10.20;99.90
73277;DHT22;61501;43.316;5.372;2024-02-23T09:23:28;10.20;99.90
73277;DHT22;61501;43.316;5.372;2024-02-23T09:25:53;10.40;99.90
73277;DHT22;61501;43.316;5.372;2024-02-23T09:28:22;10.30;99.90
73277;DHT22;61501;43.316;5.372;2024-02-23T09:30:48;10.40;99.90
73277;DHT22;61501;43.316;5.372;2024-02-23T09:33:13;10.40;99.90
73277;DHT22;61501;43.316;5.372;2024-02-23T09:35:39;10.50;99.90
73277;DHT22;61501;43.316;5.372;2024-02-23T09:38:05;10.50;99.90
73277;DHT22;61501;43.316;5.372;2024-02-23T09:40:30;10.50;99.90
73277;DHT22;61501;43.316;5.372;2024-02-23T09:42:57;10.50;99.90
73277;DHT22;61501;43.316;5.372;2024-02-23T09:45:27;10.60;99.90
73277;DHT22;61501;43.316;5.372;2024-02-23T09:47:57;10.60;99.90
73277;DHT22;61501;43.316;5.372;2024-02-23T09:50:23;10.60;99.90
73277;DHT22;61501;43.316;5.372;2024-02-23T09:52:50;10.60;99.90
73277;DHT22;61501;43.316;5.372;2024-02-23T09:55:23;10.70;99.90
73277;DHT22;61501;43.316;5.372;2024-02-23T09:57:51;10.70;99.90
73277;DHT22;61501;43.316;5.372;2024-02-23T10:00:20;10.70;99.90
73277;DHT22;61501;43.316;5.372;2024-02-23T10:02:46;10.80;99.90
73277;DHT22;61501;43.316;5.372;2024-02-23T10:05:14;10.80;99.40
73277;DHT22;61501;43.316;5.372;2024-02-23T10:07:42;10.80;99.50
73277;DHT22;61501;43.316;5.372;2024-02-23T10:10:08;10.90;99.10
73277;DHT22;61501;43.316;5.372;2024-02-23T10:12:34;10.90;97.70
73277;DHT22;61501;43.316;5.372;2024-02-23T10:15:01;11.00;97.80
73277;DHT22;61501;43.316;5.372;2024-02-23T10:17:32;11.00;98.50
73277;DHT22;61501;43.316;5.372;2024-02-23T10:20:01;11.00;96.70
73277;DHT22;61501;43.316;5.372;2024-02-23T10:22:30;11.00;95.70
73277;DHT22;61501;43.316;5.372;2024-02-23T10:24:56;11.00;95.80
73277;DHT22;61501;43.316;5.372;2024-02-23T10:27:26;11.10;94.90
73277;DHT22;61501;43.316;5.372;2024-02-23T10:29:51;11.00;93.70
73277;DHT22;61501;43.316;5.372;2024-02-23T10:32:19;11.20;94.60
73277;DHT22;61501;43.316;5.372;2024-02-23T10:34:48;11.10;93.80
73277;DHT22;61501;43.316;5.372;2024-02-23T10:37:15;11.20;94.50
73277;DHT22;61501;43.316;5.372;2024-02-23T10:39:41;11.20;94.90
73277;DHT22;61501;43.316;5.372;2024-02-23T10:42:09;11.20;95.70
73277;DHT22;61501;43.316;5.372;2024-02-23T10:44:37;11.30;95.20
73277;DHT22;61501;43.316;5.372;2024-02-23T10:47:04;11.40;95.90
73277;DHT22;61501;43.316;5.372;2024-02-23T10:49:31;11.50;93.30
73277;DHT22;61501;43.316;5.372;2024-02-23T10:51:57;11.40;93.40
73277;DHT22;61501;43.316;5.372;2024-02-23T10:54:22;11.50;93.70
73277;DHT22;61501;43.316;5.372;2024-02-23T10:56:52;11.50;94.40
73277;DHT22;61501;43.316;5.372;2024-02-23T10:59:18;11.50;94.70
73277;DHT22;61501;43.316;5.372;2024-02-23T11:01:59;11.70;94.50
73277;DHT22;61501;43.316;5.372;2024-02-23T11:04:26;11.60;92.90
73277;DHT22;61501;43.316;5.372;2024-02-23T11:06:54;11.70;92.40
73277;DHT22;61501;43.316;5.372;2024-02-23T11:09:23;11.70;91.50
73277;DHT22;61501;43.316;5.372;2024-02-23T11:11:56;11.70;91.80
73277;DHT22;61501;43.316;5.372;2024-02-23T11:14:36;11.70;93.50
73277;DHT22;61501;43.316;5.372;2024-02-23T11:17:03;11.60;92.50
73277;DHT22;61501;43.316;5.372;2024-02-23T11:19:36;11.70;93.80
73277;DHT22;61501;43.316;5.372;2024-02-23T11:22:03;11.70;94.80
73277;DHT22;61501;43.316;5.372;2024-02-23T11:24:30;11.70;95.20
73277;DHT22;61501;43.316;5.372;2024-02-23T11:27:00;11.60;94.10
73277;DHT22;61501;43.316;5.372;2024-02-23T11:29:33;11.60;94.80
73277;DHT22;61501;43.316;5.372;2024-02-23T11:32:00;11.60;93.50
73277;DHT22;61501;43.316;5.372;2024-02-23T11:34:29;11.50;93.50
73277;DHT22;61501;43.316;5.372;2024-02-23T11:36:55;11.50;93.80
73277;DHT22;61501;43.316;5.372;2024-02-23T11:39:22;11.50;94.00
73277;DHT22;61501;43.316;5.372;2024-02-23T11:41:50;11.50;94.50
73277;DHT22;61501;43.316;5.372;2024-02-23T11:44:19;11.40;97.30
73277;DHT22;61501;43.316;5.372;2024-02-23T11:46:49;11.40;95.60
73277;DHT22;61501;43.316;5.372;2024-02-23T11:49:15;11.50;97.60
73277;DHT22;61501;43.316;5.372;2024-02-23T11:51:41;11.50;95.80
73277;DHT22;61501;43.316;5.372;2024-02-23T11:54:07;11.50;94.70
73277;DHT22;61501;43.316;5.372;2024-02-23T11:56:34;11.70;93.90
73277;DHT22;61501;43.316;5.372;2024-02-23T11:59:00;11.60;94.40
73277;DHT22;61501;43.316;5.372;2024-02-23T12:01:29;11.70;94.50
73277;DHT22;61501;43.316;5.372;2024-02-23T12:03:55;11.60;95.00
73277;DHT22;61501;43.316;5.372;2024-02-23T12:06:21;11.60;94.10
73277;DHT22;61501;43.316;5.372;2024-02-23T12:08:47;11.70;93.70
73277;DHT22;61501;43.316;5.372;2024-02-23T12:11:15;11.80;93.60
73277;DHT22;61501;43.316;5.372;2024-02-23T12:13:41;11.80;94.80
73277;DHT22;61501;43.316;5.372;2024-02-23T12:16:08;11.80;94.40
73277;DHT22;61501;43.316;5.372;2024-02-23T12:18:35;11.80;94.20
73277;DHT22;61501;43.316;5.372;2024-02-23T12:21:02;11.90;94.50
73277;DHT22;61501;43.316;5.372;2024-02-23T12:23:44;11.80;95.40
73277;DHT22;61501;43.316;5.372;2024-02-23T12:26:12;11.80;96.10
73277;DHT22;61501;43.316;5.372;2024-02-23T12:28:39;11.90;94.40
73277;DHT22;61501;43.316;5.372;2024-02-23T12:31:05;11.90;95.60
73277;DHT22;61501;43.316;5.372;2024-02-23T12:33:36;11.80;95.50
73277;DHT22;61501;43.316;5.372;2024-02-23T12:36:03;11.70;96.40
73277;DHT22;61501;43.316;5.372;2024-02-23T12:38:30;11.70;97.00
73277;DHT22;61501;43.316;5.372;2024-02-23T12:40:55;11.70;97.10
73277;DHT22;61501;43.316;5.372;2024-02-23T12:43:21;11.90;97.80
73277;DHT22;61501;43.316;5.372;2024-02-23T12:45:50;12.00;98.00
73277;DHT22;61501;43.316;5.372;2024-02-23T12:48:17;12.00;97.80
73277;DHT22;61501;43.316;5.372;2024-02-23T12:50:43;11.90;97.70
73277;DHT22;61501;43.316;5.372;2024-02-23T12:53:30;12.00;97.00
73277;DHT22;61501;43.316;5.372;2024-02-23T12:55:57;12.00;96.80
73277;DHT22;61501;43.316;5.372;2024-02-23T12:58:22;12.00;96.80
73277;DHT22;61501;43.316;5.372;2024-02-23T13:00:48;11.90;99.90
73277;DHT22;61501;43.316;5.372;2024-02-23T13:03:14;11.90;99.90
73277;DHT22;61501;43.316;5.372;2024-02-23T13:05:39;11.70;99.90
73277;DHT22;61501;43.316;5.372;2024-02-23T13:08:05;11.70;99.90
73277;DHT22;61501;43.316;5.372;2024-02-23T13:10:31;11.70;99.90
73277;DHT22;61501;43.316;5.372;2024-02-23T13:12:57;11.70;99.90
73277;DHT22;61501;43.316;5.372;2024-02-23T13:15:22;11.80;99.90
73277;DHT22;61501;43.316;5.372;2024-02-23T13:17:48;12.00;99.90
73277;DHT22;61501;43.316;5.372;2024-02-23T13:20:14;12.00;99.90
73277;DHT22;61501;43.316;5.372;2024-02-23T13:22:39;11.90;99.90
73277;DHT22;61501;43.316;5.372;2024-02-23T13:25:05;12.00;99.90
73277;DHT22;61501;43.316;5.372;2024-02-23T13:27:31;12.20;99.90
73277;DHT22;61501;43.316;5.372;2024-02-23T13:29:57;12.20;99.90
73277;DHT22;61501;43.316;5.372;2024-02-23T13:32:22;12.00;99.90
73277;DHT22;61501;43.316;5.372;2024-02-23T13:34:48;12.00;99.90
73277;DHT22;61501;43.316;5.372;2024-02-23T13:37:18;11.90;99.90
73277;DHT22;61501;43.316;5.372;2024-02-23T13:39:43;11.90;99.90
73277;DHT22;61501;43.316;5.372;2024-02-23T13:42:09;11.90;99.90
73277;DHT22;61501;43.316;5.372;2024-02-23T13:44:35;14.00;99.20
73277;DHT22;61501;43.316;5.372;2024-02-23T13:47:01;13.80;99.40
73277;DHT22;61501;43.316;5.372;2024-02-23T13:49:27;14.30;98.10
73277;DHT22;61501;43.316;5.372;2024-02-23T13:51:53;14.40;96.60
73277;DHT22;61501;43.316;5.372;2024-02-23T13:54:20;14.50;95.90
73277;DHT22;61501;43.316;5.372;2024-02-23T13:56:45;14.10;97.40
73277;DHT22;61501;43.316;5.372;2024-02-23T13:59:11;13.80;98.10
73277;DHT22;61501;43.316;5.372;2024-02-23T14:01:37;14.20;94.90
73277;DHT22;61501;43.316;5.372;2024-02-23T14:04:07;13.80;97.20
73277;DHT22;61501;43.316;5.372;2024-02-23T14:06:36;13.10;98.70
73277;DHT22;61501;43.316;5.372;2024-02-23T14:09:01;13.00;99.90
73277;DHT22;61501;43.316;5.372;2024-02-23T14:11:29;13.50;96.50
73277;DHT22;61501;43.316;5.372;2024-02-23T14:13:55;13.90;96.00
73277;DHT22;61501;43.316;5.372;2024-02-23T14:16:21;14.40;93.20
73277;DHT22;61501;43.316;5.372;2024-02-23T14:18:46;13.50;95.50
73277;DHT22;61501;43.316;5.372;2024-02-23T14:21:13;13.00;97.00
73277;DHT22;61501;43.316;5.372;2024-02-23T14:23:39;12.80;96.70
73277;DHT22;61501;43.316;5.372;2024-02-23T14:26:05;12.60;97.90
73277;DHT22;61501;43.316;5.372;2024-02-23T14:28:31;12.80;98.60
73277;DHT22;61501;43.316;5.372;2024-02-23T14:30:56;12.80;99.30
73277;DHT22;61501;43.316;5.372;2024-02-23T14:33:22;12.60;98.90
73277;DHT22;61501;43.316;5.372;2024-02-23T14:35:48;12.40;98.90
73277;DHT22;61501;43.316;5.372;2024-02-23T14:38:15;12.50;99.90
73277;DHT22;61501;43.316;5.372;2024-02-23T14:40:41;13.00;98.60
73277;DHT22;61501;43.316;5.372;2024-02-23T14:43:07;12.60;99.40
73277;DHT22;61501;43.316;5.372;2024-02-23T14:45:33;13.20;99.20
73277;DHT22;61501;43.316;5.372;2024-02-23T14:47:59;13.60;96.50
73277;DHT22;61501;43.316;5.372;2024-02-23T14:50:24;13.80;95.00
73277;DHT22;61501;43.316;5.372;2024-02-23T14:52:50;12.90;97.00
73277;DHT22;61501;43.316;5.372;2024-02-23T14:55:16;12.60;97.80
73277;DHT22;61501;43.316;5.372;2024-02-23T14:57:42;12.50;99.40
73277;DHT22;61501;43.316;5.372;2024-02-23T15:00:08;12.50;97.70
73277;DHT22;61501;43.316;5.372;2024-02-23T15:02:35;12.50;99.20
73277;DHT22;61501;43.316;5.372;2024-02-23T15:05:01;12.50;98.00
73277;DHT22;61501;43.316;5.372;2024-02-23T15:07:26;12.90;98.40
73277;DHT22;61501;43.316;5.372;2024-02-23T15:09:53;14.00;95.70
73277;DHT22;61501;43.316;5.372;2024-02-23T15:12:19;14.00;94.20
73277;DHT22;61501;43.316;5.372;2024-02-23T15:14:47;13.40;97.50
73277;DHT22;61501;43.316;5.372;2024-02-23T15:17:12;13.10;97.60
73277;DHT22;61501;43.316;5.372;2024-02-23T15:19:38;13.10;97.70
73277;DHT22;61501;43.316;5.372;2024-02-23T15:22:04;13.10;99.00
73277;DHT22;61501;43.316;5.372;2024-02-23T15:24:33;13.40;98.40
73277;DHT22;61501;43.316;5.372;2024-02-23T15:26:58;13.20;98.00